Time;durP1;ratioP1;P1;durP2;ratioP2;P2;SDS_P1;SDS_P2;PMS_P1;PMS_P2;Temp;Humidity;BMP_temperature;BMP_pressure;BME280_temperature;BME280_humidity;BME280_pressure;Samples;Min_cycle;Max_cycle;Signal;HPM_P1;HPM_P2
2022/04/03 00:07:29;;;;;;;1.95;0.82;;;-1.70;99.90;;;;;;20651426;28;20061;-45
2022/04/03 00:17:32;;;;;;;1.23;0.82;;;-1.70;99.90;;;;;;20667163;28;20034;-45
2022/04/03 00:27:34;;;;;;;1.02;0.70;;;-1.70;99.90;;;;;;20650971;28;20038;-45
2022/04/03 00:37:37;;;;;;;1.20;0.60;;;-1.70;99.90;;;;;;20673772;28;20490;-49
2022/04/03 00:47:40;;;;;;;1.83;0.60;;;-1.60;99.90;;;;;;20664794;28;20034;-46
2022/04/03 00:57:43;;;;;;;1.98;0.80;;;-1.70;99.90;;;;;;20681626;28;20508;-46
2022/04/03 01:07:47;;;;;;;1.30;0.70;;;-1.90;99.90;;;;;;20679418;28;20042;-45
2022/04/03 01:17:49;;;;;;;1.23;0.73;;;-2.10;99.90;;;;;;20678662;28;20401;-45
2022/04/03 01:27:51;;;;;;;1.55;0.90;;;-2.10;99.90;;;;;;20677863;28;20485;-46
2022/04/03 01:37:54;;;;;;;0.90;0.57;;;-2.00;99.90;;;;;;20677711;28;20054;-45
2022/04/03 01:48:02;;;;;;;1.10;0.60;;;-2.20;99.90;;;;;;20677289;28;20445;-49
2022/04/03 01:58:08;;;;;;;0.90;0.60;;;-2.30;99.90;;;;;;20658894;28;20038;-46
2022/04/03 02:08:12;;;;;;;1.48;0.70;;;-2.60;99.90;;;;;;20675706;28;20045;-45
2022/04/03 02:18:19;;;;;;;1.42;0.60;;;-2.80;99.90;;;;;;20657684;28;20454;-49
2022/04/03 02:28:21;;;;;;;2.22;1.00;;;-2.90;99.90;;;;;;20672969;28;21342;-45
2022/04/03 02:38:24;;;;;;;1.10;0.47;;;-2.90;99.90;;;;;;20672144;28;20052;-45
2022/04/03 02:48:26;;;;;;;1.40;0.88;;;-2.80;99.90;;;;;;20672875;28;20046;-45
2022/04/03 02:58:29;;;;;;;1.67;0.80;;;-2.80;99.90;;;;;;20638418;28;20039;-45
2022/04/03 03:08:32;;;;;;;1.25;0.82;;;-2.70;99.90;;;;;;20670255;28;20030;-46
2022/04/03 03:18:35;;;;;;;1.38;0.85;;;-2.80;99.90;;;;;;20669778;28;20034;-46
2022/04/03 03:28:37;;;;;;;1.27;0.73;;;-2.90;99.90;;;;;;20669335;28;20038;-49
2022/04/03 03:38:40;;;;;;;2.10;0.70;;;-3.00;99.90;;;;;;20652674;28;20077;-44
2022/04/03 03:48:42;;;;;;;1.17;0.70;;;-3.10;99.90;;;;;;20669023;28;20358;-46
2022/04/03 03:58:45;;;;;;;1.20;0.47;;;-3.10;99.90;;;;;;20635928;28;20452;-46
2022/04/03 04:08:48;;;;;;;1.48;0.82;;;-2.90;99.90;;;;;;20669493;28;20541;-46
2022/04/03 04:18:51;;;;;;;1.23;0.47;;;-2.70;99.90;;;;;;20652271;28;20039;-45
2022/04/03 04:28:53;;;;;;;1.60;1.10;;;-2.60;99.90;;;;;;20682551;28;20094;-46
2022/04/03 04:38:57;;;;;;;1.60;0.85;;;-2.90;99.90;;;;;;20664950;28;20054;-45
2022/04/03 04:49:00;;;;;;;1.25;0.70;;;-3.00;99.90;;;;;;20680945;28;20038;-45
2022/04/03 04:59:03;;;;;;;1.42;0.80;;;-3.10;99.90;;;;;;20651332;28;20101;-46
2022/04/03 05:09:06;;;;;;;1.38;0.88;;;-3.20;99.90;;;;;;20679458;28;20088;-45
2022/04/03 05:19:13;;;;;;;1.73;0.85;;;-3.30;99.90;;;;;;20678193;28;20046;-48
2022/04/03 05:29:16;;;;;;;1.58;0.77;;;-3.20;99.90;;;;;;20678112;28;20038;-45
2022/04/03 05:39:22;;;;;;;1.23;0.85;;;-3.10;99.90;;;;;;20677494;28;20050;-44
2022/04/03 05:49:24;;;;;;;1.58;0.90;;;-2.90;99.90;;;;;;20676118;28;20106;-47
2022/04/03 05:59:27;;;;;;;3.00;1.17;;;-2.80;99.90;;;;;;20658997;28;20046;-47
2022/04/03 06:09:30;;;;;;;1.40;0.80;;;-2.70;99.90;;;;;;20675019;28;20175;-46
2022/04/03 06:19:33;;;;;;;1.80;0.70;;;-2.50;99.90;;;;;;20673779;28;20493;-45
2022/04/03 06:29:36;;;;;;;1.90;0.95;;;-2.20;99.90;;;;;;20673100;28;20092;-47
2022/04/03 06:39:38;;;;;;;2.05;1.20;;;-1.70;99.90;;;;;;20671161;28;20042;-45
2022/04/03 06:49:41;;;;;;;0.75;0.40;;;-1.20;99.90;;;;;;20671820;28;20038;-45
2022/04/03 06:59:43;;;;;;;1.50;0.82;;;-0.30;99.90;;;;;;20673894;28;20039;-48
2022/04/03 07:09:46;;;;;;;1.30;0.90;;;0.70;98.50;;;;;;20670643;28;20030;-44
2022/04/03 07:19:49;;;;;;;1.13;0.40;;;1.10;96.10;;;;;;20669642;28;20101;-46
2022/04/03 07:29:52;;;;;;;1.35;0.93;;;1.20;95.10;;;;;;20668926;28;20548;-45
2022/04/03 07:39:54;;;;;;;1.10;0.70;;;1.80;92.90;;;;;;20668615;28;20493;-45
2022/04/03 07:49:58;;;;;;;1.35;0.80;;;2.10;92.70;;;;;;20682381;28;20424;-45
2022/04/03 08:00:01;;;;;;;1.48;0.80;;;3.00;90.40;;;;;;20683690;28;20157;-46
2022/04/03 08:10:08;;;;;;;1.48;0.90;;;3.50;87.20;;;;;;20683539;28;20073;-49
2022/04/03 08:20:17;;;;;;;1.10;0.68;;;4.20;86.70;;;;;;20682637;28;20042;-45
2022/04/03 08:30:31;;;;;;;2.35;1.10;;;4.90;82.20;;;;;;20682636;28;20038;-45
2022/04/03 08:40:35;;;;;;;3.88;0.90;;;6.00;79.80;;;;;;20681044;28;20042;-47
2022/04/03 08:50:39;;;;;;;1.42;0.90;;;6.80;81.30;;;;;;20680293;28;20046;-49
2022/04/03 09:00:42;;;;;;;1.52;0.90;;;7.80;73.20;;;;;;20680503;28;20050;-46
2022/04/03 09:11:04;;;;;;;2.40;1.15;;;7.80;72.50;;;;;;20678907;28;20516;-50
2022/04/03 09:21:26;;;;;;;1.13;0.95;;;7.80;69.70;;;;;;20659250;28;20042;-46
2022/04/03 09:31:30;;;;;;;2.70;1.05;;;7.20;72.10;;;;;;20677407;28;20393;-46
2022/04/03 09:42:04;;;;;;;2.22;1.00;;;7.90;73.30;;;;;;20676518;28;20108;-47
2022/04/03 09:52:07;;;;;;;1.73;1.13;;;9.30;69.00;;;;;;20474832;29;20051;-47
2022/04/03 10:02:14;;;;;;;2.13;1.10;;;9.60;66.10;;;;;;20490085;29;20160;-48
2022/04/03 10:12:19;;;;;;;1.10;0.80;;;9.80;67.90;;;;;;20488204;28;20046;-46
2022/04/03 10:22:28;;;;;;;1.50;1.20;;;11.00;65.20;;;;;;20509437;28;20408;-56
2022/04/03 10:32:34;;;;;;;1.20;1.05;;;10.30;64.70;;;;;;20673247;28;20038;-47
2022/04/03 10:42:50;;;;;;;1.25;0.90;;;10.70;65.80;;;;;;20654559;28;20046;-46
2022/04/03 10:52:56;;;;;;;1.08;0.70;;;10.00;62.80;;;;;;20639235;28;20039;-55
2022/04/03 11:03:21;;;;;;;1.40;1.10;;;9.50;64.40;;;;;;20670528;28;20065;-55
2022/04/03 11:13:38;;;;;;;1.73;1.25;;;10.10;61.60;;;;;;20653649;28;20096;-51
2022/04/03 11:23:46;;;;;;;1.58;1.15;;;10.10;64.90;;;;;;20669059;28;20038;-63
2022/04/03 11:33:49;;;;;;;2.08;1.20;;;7.80;64.80;;;;;;20670440;28;20038;-58
2022/04/03 11:43:56;;;;;;;2.10;1.50;;;7.60;68.40;;;;;;20652307;28;20576;-58
2022/04/03 11:54:00;;;;;;;2.40;1.45;;;8.10;75.00;;;;;;20668504;28;20038;-58
2022/04/03 12:04:13;;;;;;;3.00;1.92;;;8.40;73.40;;;;;;20669015;28;20100;-58
2022/04/03 12:14:30;;;;;;;3.90;2.70;;;9.00;76.90;;;;;;20668558;28;20042;-58
2022/04/03 12:24:35;;;;;;;5.15;3.30;;;7.90;85.50;;;;;;20633449;28;20449;-58
2022/04/03 12:34:40;;;;;;;4.90;3.28;;;6.60;92.00;;;;;;20677537;28;20030;-58
2022/04/03 12:45:00;;;;;;;4.35;3.08;;;5.50;94.90;;;;;;20681184;28;20042;-58
2022/04/03 12:55:03;;;;;;;5.53;3.10;;;6.00;96.90;;;;;;20681498;28;20042;-49
2022/04/03 13:05:13;;;;;;;5.07;3.08;;;6.50;95.90;;;;;;20680004;28;20030;-49
2022/04/03 13:15:17;;;;;;;5.43;3.40;;;6.50;96.30;;;;;;20670167;28;20034;-61
2022/04/03 13:35:59;;;;;;;6.63;4.50;;;3.70;99.90;;;;;;19961041;24;20179;-56
2022/04/03 13:46:05;;;;;;;6.18;3.53;;;3.10;99.90;;;;;;19864931;29;20095;-57
2022/04/03 13:56:10;;;;;;;5.95;3.72;;;3.20;99.90;;;;;;19878948;29;20070;-57
2022/04/03 14:06:12;;;;;;;5.70;3.47;;;3.20;99.90;;;;;;19878179;29;20038;-57
2022/04/03 14:16:15;;;;;;;6.85;4.30;;;3.50;99.90;;;;;;19878667;29;20051;-58
2022/04/03 14:26:18;;;;;;;6.80;4.65;;;3.40;99.90;;;;;;19876536;29;20103;-58
2022/04/03 14:36:21;;;;;;;6.57;4.43;;;2.70;99.90;;;;;;19875862;29;20042;-57
2022/04/03 14:46:23;;;;;;;8.30;5.57;;;2.10;99.90;;;;;;19875402;29;20035;-54
2022/04/03 14:56:27;;;;;;;8.07;4.88;;;1.90;99.90;;;;;;19859484;24;20127;-51
2022/04/03 15:06:29;;;;;;;7.50;4.63;;;2.00;99.90;;;;;;19818769;29;20047;-53
2022/04/03 15:16:32;;;;;;;6.60;4.32;;;2.20;99.90;;;;;;19841524;29;20039;-52
2022/04/03 15:26:34;;;;;;;6.45;3.95;;;2.70;99.90;;;;;;19798774;29;20080;-54
2022/04/03 15:36:37;;;;;;;7.85;4.28;;;3.90;99.90;;;;;;19802381;29;20047;-53
2022/04/03 15:46:40;;;;;;;5.93;4.15;;;3.80;99.90;;;;;;19872139;29;20894;-51
2022/04/03 15:56:43;;;;;;;7.00;4.35;;;3.40;99.90;;;;;;19871757;29;20440;-52
2022/04/03 16:06:46;;;;;;;6.90;4.22;;;3.00;99.90;;;;;;19854163;29;20039;-51
2022/04/03 16:16:48;;;;;;;6.63;4.30;;;2.70;99.90;;;;;;19819033;29;20169;-53
2022/04/03 16:26:54;;;;;;;6.60;4.40;;;2.50;99.90;;;;;;19852593;29;20047;-53
2022/04/03 16:36:57;;;;;;;7.13;4.60;;;2.70;99.90;;;;;;19809576;29;20062;-52
2022/04/03 16:47:00;;;;;;;5.97;4.13;;;2.80;99.90;;;;;;19821803;29;20039;-52
2022/04/03 16:57:03;;;;;;;6.25;4.40;;;2.40;99.90;;;;;;19863568;29;20087;-53
2022/04/03 17:07:06;;;;;;;6.97;4.78;;;1.80;99.90;;;;;;19834593;29;20127;-51
2022/04/03 17:17:09;;;;;;;9.43;5.10;;;1.40;99.90;;;;;;19835230;29;20058;-47
2022/04/03 17:27:14;;;;;;;8.73;5.35;;;0.90;99.90;;;;;;19872197;29;20567;-52
2022/04/03 17:37:17;;;;;;;8.32;5.05;;;0.50;99.90;;;;;;19870832;29;20412;-52
2022/04/03 17:47:19;;;;;;;9.07;5.55;;;0.40;99.90;;;;;;19868554;29;20091;-51
2022/04/03 17:57:22;;;;;;;8.60;5.63;;;0.30;99.90;;;;;;19833490;29;20086;-49
2022/04/03 18:07:25;;;;;;;9.35;5.63;;;0.20;99.90;;;;;;19826609;29;20111;-47
2022/04/03 18:17:28;;;;;;;9.10;6.18;;;0.10;99.90;;;;;;19822335;29;20498;-51
2022/04/03 18:27:31;;;;;;;10.35;6.22;;;0.00;99.90;;;;;;19846167;29;20568;-49
2022/04/03 18:37:33;;;;;;;9.65;5.85;;;0.00;99.90;;;;;;19828149;29;20145;-50
2022/04/03 18:47:36;;;;;;;11.30;6.20;;;-0.20;99.90;;;;;;19870652;29;20092;-50
2022/04/03 18:57:39;;;;;;;12.95;6.68;;;-0.50;99.90;;;;;;19821835;29;20143;-48
2022/04/03 19:07:43;;;;;;;10.75;6.55;;;-0.40;99.90;;;;;;19840916;29;20036;-54
2022/04/03 19:17:45;;;;;;;12.35;7.85;;;-0.60;99.90;;;;;;19820909;29;20092;-49
2022/04/03 19:27:49;;;;;;;13.55;8.45;;;-0.60;99.90;;;;;;19855145;29;20051;-52
2022/04/03 19:37:53;;;;;;;13.88;8.45;;;-0.40;99.90;;;;;;19834441;29;20500;-49
2022/04/03 19:47:55;;;;;;;11.13;7.38;;;-0.30;99.90;;;;;;19880474;29;20447;-51
2022/04/03 19:57:59;;;;;;;11.43;7.25;;;-0.20;99.90;;;;;;19852735;29;20059;-50
2022/04/03 20:08:03;;;;;;;13.55;7.82;;;-0.20;99.90;;;;;;19821678;29;20040;-49
2022/04/03 20:18:11;;;;;;;12.75;7.25;;;-0.20;99.90;;;;;;19842458;29;20046;-51
2022/04/03 20:28:15;;;;;;;13.35;7.75;;;-0.10;99.90;;;;;;19883568;29;20047;-50
2022/04/03 20:38:20;;;;;;;12.65;7.97;;;0.00;99.90;;;;;;19820610;29;20071;-50
2022/04/03 20:48:23;;;;;;;12.05;7.82;;;-0.10;99.90;;;;;;19884770;29;20207;-51
2022/04/03 20:58:27;;;;;;;12.35;7.72;;;-0.10;99.90;;;;;;19882523;29;20116;-50
2022/04/03 21:08:30;;;;;;;13.23;7.20;;;-0.10;99.90;;;;;;19866022;29;20460;-49
2022/04/03 21:18:32;;;;;;;10.23;6.68;;;-0.20;99.90;;;;;;19807055;29;20067;-48
2022/04/03 21:28:35;;;;;;;11.05;6.95;;;-0.20;99.90;;;;;;19813971;29;20125;-49
2022/04/03 21:38:38;;;;;;;11.65;7.00;;;-0.20;99.90;;;;;;19813522;29;20126;-48
2022/04/03 21:48:40;;;;;;;10.93;6.88;;;-0.20;99.90;;;;;;19816478;29;20046;-51
2022/04/03 21:58:44;;;;;;;10.65;6.60;;;-0.20;99.90;;;;;;19823247;29;20177;-50
2022/04/03 22:08:46;;;;;;;10.48;6.85;;;-0.20;99.90;;;;;;19803711;29;20104;-48
2022/04/03 22:18:48;;;;;;;9.15;5.85;;;-0.30;99.90;;;;;;19802718;29;20051;-58
2022/04/03 22:28:51;;;;;;;10.57;6.35;;;-0.30;99.90;;;;;;19826294;29;20374;-48
2022/04/03 22:38:53;;;;;;;9.60;5.93;;;-0.30;99.90;;;;;;19851560;29;20043;-52
2022/04/03 22:48:56;;;;;;;10.45;6.15;;;-0.40;99.90;;;;;;19868192;29;20494;-50
2022/04/03 22:58:59;;;;;;;11.05;6.32;;;-0.40;99.90;;;;;;19829111;29;20219;-48
2022/04/03 23:09:02;;;;;;;12.48;6.43;;;-0.40;99.90;;;;;;19874041;29;20047;-49
2022/04/03 23:19:04;;;;;;;8.25;4.90;;;-0.50;99.90;;;;;;19820567;29;20071;-49
2022/04/03 23:29:06;;;;;;;10.40;3.90;;;-0.50;99.90;;;;;;19802897;29;20083;-50
2022/04/03 23:39:09;;;;;;;7.45;4.00;;;-0.70;99.90;;;;;;19813461;29;20070;-51
2022/04/03 23:49:12;;;;;;;6.53;3.17;;;-0.80;99.90;;;;;;19797991;29;20092;-51
2022/04/03 23:59:16;;;;;;;4.97;3.40;;;-0.90;99.90;;;;;;19797260;29;20060;-51
